Time;durP1;ratioP1;P1;durP2;ratioP2;P2;SDS_P1;SDS_P2;PMS_P1;PMS_P2;Temp;Humidity;BMP_temperature;BMP_pressure;BME280_temperature;BME280_humidity;BME280_pressure;Samples;Min_cycle;Max_cycle;Signal;HPM_P1;HPM_P2
2022/08/27 00:03:05;;;;;;;;;;;19.20;99.90;;;;;;8442682;27;19942;-73
2022/08/27 00:07:06;;;;;;;;;;;19.10;99.90;;;;;;8448838;28;19919;-73
2022/08/27 00:11:09;;;;;;;;;;;19.10;99.90;;;;;;8448385;27;19927;-73
2022/08/27 00:15:11;;;;;;;;;;;19.10;99.90;;;;;;8442680;27;19927;-73
2022/08/27 00:19:12;;;;;;;;;;;19.10;99.90;;;;;;8448071;27;20435;-73
2022/08/27 00:23:15;;;;;;;;;;;19.10;99.90;;;;;;8453371;27;19973;-73
2022/08/27 00:27:16;;;;;;;;;;;19.10;99.90;;;;;;8432253;27;19973;-74
2022/08/27 00:31:18;;;;;;;;;;;19.10;99.90;;;;;;8426647;28;19920;-73
2022/08/27 00:35:20;;;;;;;;;;;19.10;99.90;;;;;;8446708;28;19942;-73
2022/08/27 00:39:21;;;;;;;;;;;19.10;99.90;;;;;;8449046;27;19923;-72
2022/08/27 00:43:24;;;;;;;;;;;19.10;99.90;;;;;;8442761;28;19924;-73
2022/08/27 00:47:28;;;;;;;;;;;19.10;99.90;;;;;;8443016;27;19919;-74
2022/08/27 00:51:30;;;;;;;;;;;19.10;99.90;;;;;;8432603;28;19920;-73
2022/08/27 00:55:41;;;;;;;;;;;19.00;99.90;;;;;;8430533;28;19928;-73
2022/08/27 00:59:43;;;;;;;;;;;19.00;99.90;;;;;;8446895;27;19928;-73
2022/08/27 01:03:46;;;;;;;;;;;19.00;99.90;;;;;;8429587;28;19992;-73
2022/08/27 01:07:50;;;;;;;;;;;19.00;99.90;;;;;;8447740;28;19992;-73
2022/08/27 01:11:54;;;;;;;;;;;19.00;99.90;;;;;;8449043;27;19923;-73
2022/08/27 01:15:57;;;;;;;;;;;19.00;99.90;;;;;;8447486;28;19920;-73
2022/08/27 01:20:02;;;;;;;;;;;19.00;99.90;;;;;;8444070;27;19951;-73
2022/08/27 01:24:13;;;;;;;;;;;19.00;99.90;;;;;;8447983;27;20358;-73
2022/08/27 01:28:15;;;;;;;;;;;19.00;99.90;;;;;;8429134;28;19928;-73
2022/08/27 01:32:19;;;;;;;;;;;19.00;99.90;;;;;;8447826;27;20215;-73
2022/08/27 01:36:20;;;;;;;;;;;18.90;99.90;;;;;;8445127;27;20366;-74
2022/08/27 01:40:22;;;;;;;;;;;18.90;99.90;;;;;;8447435;27;19923;-73
2022/08/27 01:44:24;;;;;;;;;;;18.90;99.90;;;;;;8444331;27;19926;-73
2022/08/27 01:48:26;;;;;;;;;;;18.90;99.90;;;;;;8443629;28;20367;-74
2022/08/27 01:52:29;;;;;;;;;;;18.90;99.90;;;;;;8446994;28;20325;-74
2022/08/27 01:56:30;;;;;;;;;;;18.90;99.90;;;;;;8444042;28;19923;-73
2022/08/27 02:00:35;;;;;;;;;;;18.90;99.90;;;;;;8428249;28;19924;-75
2022/08/27 02:04:37;;;;;;;;;;;18.90;99.90;;;;;;8429750;28;19962;-73
2022/08/27 02:08:39;;;;;;;;;;;18.80;99.90;;;;;;8459152;27;19919;-73
2022/08/27 02:12:40;;;;;;;;;;;18.80;99.90;;;;;;8447597;27;19946;-73
2022/08/27 02:16:42;;;;;;;;;;;18.80;99.90;;;;;;8427591;28;20340;-74
2022/08/27 02:20:52;;;;;;;;;;;18.80;99.90;;;;;;8428758;28;19924;-73
2022/08/27 02:24:54;;;;;;;;;;;18.80;99.90;;;;;;8424923;28;20432;-73
2022/08/27 02:28:55;;;;;;;;;;;18.80;99.90;;;;;;8449267;28;19924;-74
2022/08/27 02:33:01;;;;;;;;;;;18.80;99.90;;;;;;8440494;28;19973;-74
2022/08/27 02:37:03;;;;;;;;;;;18.80;99.90;;;;;;8424403;28;19928;-74
2022/08/27 02:41:04;;;;;;;;;;;18.70;99.90;;;;;;8443621;28;20343;-74
2022/08/27 02:45:06;;;;;;;;;;;18.70;99.90;;;;;;8450493;28;19926;-73
2022/08/27 02:49:08;;;;;;;;;;;18.70;99.90;;;;;;8442632;28;20355;-74
2022/08/27 02:53:10;;;;;;;;;;;18.70;99.90;;;;;;8439073;28;19973;-73
2022/08/27 02:57:12;;;;;;;;;;;18.60;99.90;;;;;;8449345;28;20320;-73
2022/08/27 03:01:14;;;;;;;;;;;18.60;99.90;;;;;;8427402;28;19920;-73
2022/08/27 03:05:16;;;;;;;;;;;18.60;99.90;;;;;;8454271;27;19920;-73
2022/08/27 03:09:18;;;;;;;;;;;18.60;99.90;;;;;;8441158;28;19920;-73
2022/08/27 03:13:20;;;;;;;;;;;18.60;99.90;;;;;;8453091;27;19973;-73
2022/08/27 03:21:43;;;;;;;;;;;18.50;99.90;;;;;;8449263;27;19920;-73
2022/08/27 03:25:46;;;;;;;;;;;18.50;99.90;;;;;;8429029;27;19945;-74
2022/08/27 03:29:48;;;;;;;;;;;18.40;99.90;;;;;;8449893;27;19976;-74
2022/08/27 03:33:50;;;;;;;;;;;18.40;99.90;;;;;;8446863;27;20071;-74
2022/08/27 03:37:51;;;;;;;;;;;18.30;99.90;;;;;;8447407;27;19965;-73
2022/08/27 03:41:54;;;;;;;;;;;18.30;99.90;;;;;;8447961;27;20075;-73
2022/08/27 03:45:56;;;;;;;;;;;18.20;99.90;;;;;;8447400;28;20887;-73
2022/08/27 03:50:03;;;;;;;;;;;18.20;99.90;;;;;;8444816;27;19977;-73
2022/08/27 03:54:05;;;;;;;;;;;18.10;99.90;;;;;;8450280;27;20435;-74
2022/08/27 03:58:08;;;;;;;;;;;18.00;99.90;;;;;;8433238;27;20322;-73
2022/08/27 04:02:10;;;;;;;;;;;17.90;99.90;;;;;;8446742;27;19920;-73
2022/08/27 04:06:12;;;;;;;;;;;17.90;99.90;;;;;;8450594;27;20653;-73
2022/08/27 04:10:14;;;;;;;;;;;17.80;99.90;;;;;;8449393;27;19969;-73
2022/08/27 04:14:16;;;;;;;;;;;17.80;99.90;;;;;;8450216;27;20211;-73
2022/08/27 04:18:25;;;;;;;;;;;17.70;99.90;;;;;;8451908;27;19919;-73
2022/08/27 04:22:27;;;;;;;;;;;17.60;99.90;;;;;;8441220;28;20288;-73
2022/08/27 04:26:28;;;;;;;;;;;17.60;99.90;;;;;;8448704;27;19924;-73
2022/08/27 04:30:31;;;;;;;;;;;17.50;99.90;;;;;;8443178;27;19920;-73
2022/08/27 04:34:33;;;;;;;;;;;17.40;99.90;;;;;;8446649;27;20382;-73
2022/08/27 04:38:35;;;;;;;;;;;17.40;99.90;;;;;;8427737;28;19924;-73
2022/08/27 04:42:37;;;;;;;;;;;17.30;99.90;;;;;;8428777;27;19926;-73
2022/08/27 04:46:39;;;;;;;;;;;17.30;99.90;;;;;;8448590;27;20362;-73
2022/08/27 04:50:42;;;;;;;;;;;17.20;99.90;;;;;;8447326;27;19920;-73
2022/08/27 04:54:44;;;;;;;;;;;17.20;99.90;;;;;;8445138;27;20300;-74
2022/08/27 04:58:45;;;;;;;;;;;17.10;99.90;;;;;;8442398;27;19954;-72
2022/08/27 05:02:48;;;;;;;;;;;17.10;99.90;;;;;;8428064;27;19976;-73
2022/08/27 05:06:50;;;;;;;;;;;17.10;99.90;;;;;;8421232;28;19973;-73
2022/08/27 05:10:52;;;;;;;;;;;17.10;99.90;;;;;;8432670;27;20536;-73
2022/08/27 05:14:53;;;;;;;;;;;17.10;99.90;;;;;;8422999;28;20407;-73
2022/08/27 05:18:57;;;;;;;;;;;17.10;99.90;;;;;;8438604;28;19927;-73
2022/08/27 05:22:58;;;;;;;;;;;17.00;99.90;;;;;;8440621;27;19928;-73
2022/08/27 05:27:00;;;;;;;;;;;17.00;99.90;;;;;;8430521;28;19973;-73
2022/08/27 05:31:04;;;;;;;;;;;17.00;99.90;;;;;;8437587;27;19920;-73
2022/08/27 05:35:06;;;;;;;;;;;17.00;99.90;;;;;;8433716;28;20381;-74
2022/08/27 05:39:08;;;;;;;;;;;17.00;99.90;;;;;;8435587;28;19920;-73
2022/08/27 05:43:11;;;;;;;;;;;17.10;99.90;;;;;;8426538;28;19972;-73
2022/08/27 05:47:13;;;;;;;;;;;17.10;99.90;;;;;;8420721;28;20283;-73
2022/08/27 05:51:15;;;;;;;;;;;17.10;99.90;;;;;;8421723;28;19928;-74
2022/08/27 05:55:26;;;;;;;;;;;17.10;99.90;;;;;;8427800;28;19976;-73
2022/08/27 06:03:51;;;;;;;;;;;17.20;99.90;;;;;;8266544;28;19982;-73
2022/08/27 06:07:53;;;;;;;;;;;17.20;99.90;;;;;;8269870;28;19978;-74
2022/08/27 06:11:56;;;;;;;;;;;17.20;99.90;;;;;;8338658;28;20402;-73
2022/08/27 06:16:02;;;;;;;;;;;17.30;99.90;;;;;;8341473;28;20437;-73
2022/08/27 06:20:04;;;;;;;;;;;17.30;99.90;;;;;;8273864;28;19949;-73
2022/08/27 06:24:06;;;;;;;;;;;17.30;99.90;;;;;;8340788;28;20377;-73
2022/08/27 06:28:08;;;;;;;;;;;17.40;99.90;;;;;;8272944;28;20434;-73
2022/08/27 06:32:10;;;;;;;;;;;17.50;99.90;;;;;;8326623;28;20327;-73
2022/08/27 06:36:14;;;;;;;;;;;17.50;99.90;;;;;;8332951;28;20287;-73
2022/08/27 06:40:15;;;;;;;;;;;17.50;99.90;;;;;;8337123;28;19933;-72
2022/08/27 06:44:17;;;;;;;;;;;17.60;99.90;;;;;;8266520;28;19969;-73
2022/08/27 06:48:19;;;;;;;;;;;17.60;99.90;;;;;;8278802;28;19925;-73
2022/08/27 06:52:21;;;;;;;;;;;17.70;99.90;;;;;;8346354;28;19929;-73
2022/08/27 06:56:23;;;;;;;;;;;17.80;99.90;;;;;;8274611;28;19999;-73
2022/08/27 07:00:24;;;;;;;;;;;17.80;99.90;;;;;;8424567;28;20349;-73
2022/08/27 07:04:26;;;;;;;;;;;17.90;99.90;;;;;;8437522;27;19977;-74
2022/08/27 07:08:33;;;;;;;;;;;17.90;99.90;;;;;;8435263;27;20404;-73
2022/08/27 07:12:35;;;;;;;;;;;18.00;99.90;;;;;;8427775;27;19932;-74
2022/08/27 07:16:36;;;;;;;;;;;18.10;99.90;;;;;;8430817;27;20016;-73
2022/08/27 07:20:40;;;;;;;;;;;18.10;99.90;;;;;;8448229;27;19935;-73
2022/08/27 07:24:41;;;;;;;;;;;18.20;99.90;;;;;;8418582;27;20360;-73
2022/08/27 07:28:45;;;;;;;;;;;18.20;99.90;;;;;;8426842;28;20021;-73
2022/08/27 07:32:47;;;;;;;;;;;18.30;99.90;;;;;;8435470;28;20000;-73
2022/08/27 07:36:50;;;;;;;;;;;18.30;99.90;;;;;;8436102;27;20063;-73
2022/08/27 07:40:52;;;;;;;;;;;18.40;99.90;;;;;;8430539;27;20009;-73
2022/08/27 07:44:53;;;;;;;;;;;18.50;99.90;;;;;;8426472;27;20634;-73
2022/08/27 07:48:56;;;;;;;;;;;18.50;99.90;;;;;;8441667;28;19984;-73
2022/08/27 07:52:58;;;;;;;;;;;18.70;99.90;;;;;;8445157;27;19949;-73
2022/08/27 07:57:00;;;;;;;;;;;18.80;99.90;;;;;;8437510;27;19928;-73
2022/08/27 08:01:02;;;;;;;;;;;18.90;99.90;;;;;;8440682;27;20028;-73
2022/08/27 08:05:04;;;;;;;;;;;18.90;99.90;;;;;;8421883;27;19928;-73
2022/08/27 08:09:06;;;;;;;;;;;19.00;99.90;;;;;;8441493;27;19985;-73
2022/08/27 08:13:08;;;;;;;;;;;19.10;99.90;;;;;;8432414;28;19988;-73
2022/08/27 08:17:09;;;;;;;;;;;19.10;99.90;;;;;;8437639;27;19954;-73
2022/08/27 08:21:12;;;;;;;;;;;19.20;99.90;;;;;;8426817;27;19935;-73
2022/08/27 08:25:14;;;;;;;;;;;19.30;99.90;;;;;;8426208;27;20343;-73
2022/08/27 08:29:16;;;;;;;;;;;19.30;99.90;;;;;;8441614;27;20283;-73
2022/08/27 08:33:19;;;;;;;;;;;19.40;99.90;;;;;;8440839;27;20395;-74
2022/08/27 08:37:20;;;;;;;;;;;19.40;99.90;;;;;;8440210;27;19969;-74
2022/08/27 08:41:33;;;;;;;;;;;19.50;99.90;;;;;;8430869;27;19985;-73
2022/08/27 08:45:36;;;;;;;;;;;19.50;99.90;;;;;;8448786;27;20378;-74
2022/08/27 08:49:38;;;;;;;;;;;19.50;99.90;;;;;;8443474;27;19928;-74
2022/08/27 08:53:44;;;;;;;;;;;19.60;99.90;;;;;;8431849;27;20383;-74
2022/08/27 08:57:49;;;;;;;;;;;19.60;99.90;;;;;;8427351;28;19969;-74
2022/08/27 09:01:51;;;;;;;;;;;19.70;99.90;;;;;;8441195;27;20174;-74
2022/08/27 09:05:58;;;;;;;;;;;19.70;99.90;;;;;;8432450;27;19968;-75
2022/08/27 09:10:09;;;;;;;;;;;19.80;99.90;;;;;;8439279;27;20000;-74
2022/08/27 09:14:13;;;;;;;;;;;19.80;99.90;;;;;;8422114;28;19977;-73
2022/08/27 09:18:16;;;;;;;;;;;19.90;99.90;;;;;;8424434;28;19928;-73
2022/08/27 09:22:23;;;;;;;;;;;20.00;99.90;;;;;;8439788;27;19974;-73
2022/08/27 09:26:26;;;;;;;;;;;20.00;99.90;;;;;;8439637;27;19927;-73
2022/08/27 09:30:29;;;;;;;;;;;20.00;99.90;;;;;;8441073;28;19935;-73
2022/08/27 09:34:35;;;;;;;;;;;20.00;99.90;;;;;;8440938;27;20413;-73
2022/08/27 09:38:40;;;;;;;;;;;20.00;99.90;;;;;;8423033;28;20305;-73
2022/08/27 09:42:43;;;;;;;;;;;20.10;99.90;;;;;;8437660;28;19924;-74
2022/08/27 09:46:54;;;;;;;;;;;20.20;99.90;;;;;;8430004;27;19928;-74
2022/08/27 09:50:58;;;;;;;;;;;20.20;99.90;;;;;;8431453;28;19928;-73
2022/08/27 09:55:00;;;;;;;;;;;20.30;99.90;;;;;;8420426;27;20378;-74
2022/08/27 09:59:05;;;;;;;;;;;20.30;99.90;;;;;;8436644;28;19923;-73
2022/08/27 10:03:08;;;;;;;;;;;20.30;99.90;;;;;;8411551;28;19992;-73
2022/08/27 10:07:28;;;;;;;;;;;20.30;99.90;;;;;;8442770;28;19924;-73
2022/08/27 10:11:36;;;;;;;;;;;20.30;99.90;;;;;;8434144;28;19924;-73
2022/08/27 10:15:44;;;;;;;;;;;20.40;99.90;;;;;;8439266;28;19924;-73
2022/08/27 10:20:02;;;;;;;;;;;20.40;99.90;;;;;;8439899;28;20825;-74
2022/08/27 10:24:22;;;;;;;;;;;20.40;99.90;;;;;;8433147;28;20149;-74
2022/08/27 10:28:43;;;;;;;;;;;20.40;99.90;;;;;;8430412;28;19924;-73
2022/08/27 10:33:04;;;;;;;;;;;20.40;99.90;;;;;;8414054;28;19924;-73
2022/08/27 10:37:15;;;;;;;;;;;20.40;99.90;;;;;;8434649;28;19927;-73
2022/08/27 10:41:24;;;;;;;;;;;20.30;99.90;;;;;;8415741;28;19989;-73
2022/08/27 10:45:40;;;;;;;;;;;20.40;99.90;;;;;;8426931;28;20409;-73
2022/08/27 10:50:00;;;;;;;;;;;20.40;99.90;;;;;;8434808;28;21206;-73
2022/08/27 10:54:02;;;;;;;;;;;20.50;99.90;;;;;;8436510;28;20283;-73
2022/08/27 10:58:04;;;;;;;;;;;20.60;99.90;;;;;;8437858;28;19992;-74
2022/08/27 11:02:19;;;;;;;;;;;20.70;99.90;;;;;;8429397;28;19927;-73
2022/08/27 11:06:41;;;;;;;;;;;20.80;99.90;;;;;;8434063;28;19924;-74
2022/08/27 11:11:04;;;;;;;;;;;20.90;99.90;;;;;;8419219;28;19924;-74
2022/08/27 11:15:28;;;;;;;;;;;21.00;99.90;;;;;;8440785;28;19951;-74
2022/08/27 11:19:38;;;;;;;;;;;21.00;99.90;;;;;;8430212;28;19977;-72
2022/08/27 11:23:55;;;;;;;;;;;21.00;99.90;;;;;;8451433;28;19923;-73
2022/08/27 11:27:57;;;;;;;;;;;21.10;99.90;;;;;;8444235;27;20283;-73
2022/08/27 11:32:04;;;;;;;;;;;21.10;99.90;;;;;;8430848;28;21030;-73
2022/08/27 11:36:12;;;;;;;;;;;21.20;99.90;;;;;;8447991;28;19932;-74
2022/08/27 11:40:23;;;;;;;;;;;21.20;99.90;;;;;;8446000;27;20025;-74
2022/08/27 11:44:25;;;;;;;;;;;21.20;99.90;;;;;;8450107;27;20448;-74
2022/08/27 11:48:29;;;;;;;;;;;21.30;99.90;;;;;;8452574;27;19955;-73
2022/08/27 11:52:36;;;;;;;;;;;21.40;99.90;;;;;;8448455;27;19928;-73
2022/08/27 11:56:40;;;;;;;;;;;21.40;99.90;;;;;;8452605;27;20011;-73
2022/08/27 12:00:42;;;;;;;;;;;21.30;99.90;;;;;;8450022;27;19996;-73
2022/08/27 12:04:44;;;;;;;;;;;21.30;99.90;;;;;;8449683;27;19923;-73
2022/08/27 12:08:46;;;;;;;;;;;21.30;99.90;;;;;;8436320;28;19935;-74
2022/08/27 12:12:54;;;;;;;;;;;21.40;99.90;;;;;;8439622;27;20362;-73
2022/08/27 12:17:00;;;;;;;;;;;21.40;99.90;;;;;;8443032;27;19932;-73
2022/08/27 12:21:17;;;;;;;;;;;21.70;99.90;;;;;;8439892;27;19932;-73
2022/08/27 12:25:19;;;;;;;;;;;21.90;99.90;;;;;;8428658;28;20025;-73
2022/08/27 12:29:30;;;;;;;;;;;21.90;99.90;;;;;;8441038;27;19935;-73
2022/08/27 12:33:34;;;;;;;;;;;21.90;99.90;;;;;;8436112;27;19981;-74
2022/08/27 12:37:37;;;;;;;;;;;21.90;99.90;;;;;;8436700;27;19923;-73
2022/08/27 12:41:43;;;;;;;;;;;21.80;99.90;;;;;;8431117;28;19924;-73
2022/08/27 12:45:50;;;;;;;;;;;21.80;99.90;;;;;;8442372;27;20315;-73
2022/08/27 12:49:55;;;;;;;;;;;21.70;99.90;;;;;;8443550;27;19928;-73
2022/08/27 12:54:15;;;;;;;;;;;21.70;99.90;;;;;;8447748;27;20608;-72
2022/08/27 12:58:17;;;;;;;;;;;21.80;99.90;;;;;;8388499;27;19986;-73
2022/08/27 13:02:33;;;;;;;;;;;21.90;99.90;;;;;;8281481;28;19933;-73
2022/08/27 13:06:42;;;;;;;;;;;21.90;99.90;;;;;;8283450;28;19982;-73
2022/08/27 13:10:45;;;;;;;;;;;22.00;99.90;;;;;;8330123;28;19952;-73
2022/08/27 13:14:46;;;;;;;;;;;22.00;99.90;;;;;;8339152;28;19933;-72
2022/08/27 13:18:56;;;;;;;;;;;21.90;99.90;;;;;;8280068;28;20337;-72
2022/08/27 13:22:58;;;;;;;;;;;22.00;99.90;;;;;;8275271;28;19925;-73
2022/08/27 13:27:03;;;;;;;;;;;22.00;99.90;;;;;;8344857;28;20280;-72
2022/08/27 13:41:30;;;;;;;;;;;22.10;99.90;;;;;;8268158;28;19920;-73
2022/08/27 13:45:32;;;;;;;;;;;22.10;99.90;;;;;;8348785;28;20245;-73
2022/08/27 13:49:36;;;;;;;;;;;22.20;99.90;;;;;;8341335;28;19933;-72
2022/08/27 13:58:13;;;;;;;;;;;22.10;99.90;;;;;;8277855;28;19929;-72
2022/08/27 14:02:27;;;;;;;;;;;22.10;99.90;;;;;;8278949;28;19930;-72
2022/08/27 14:06:32;;;;;;;;;;;22.10;99.90;;;;;;8326962;28;20647;-72
2022/08/27 14:10:38;;;;;;;;;;;22.10;99.90;;;;;;8287569;28;19926;-73
2022/08/27 14:14:40;;;;;;;;;;;22.10;99.90;;;;;;8334924;28;20165;-73
2022/08/27 14:18:53;;;;;;;;;;;22.20;99.90;;;;;;8268275;28;19925;-72
2022/08/27 14:22:59;;;;;;;;;;;22.20;99.90;;;;;;8279092;28;20296;-72
2022/08/27 14:27:07;;;;;;;;;;;22.20;99.90;;;;;;8336190;28;19926;-73
2022/08/27 14:31:09;;;;;;;;;;;22.30;99.90;;;;;;8292078;28;20355;-73
2022/08/27 14:35:11;;;;;;;;;;;22.30;99.90;;;;;;8295475;28;19982;-72
2022/08/27 14:39:13;;;;;;;;;;;22.30;99.90;;;;;;8345589;28;19929;-73
2022/08/27 14:43:15;;;;;;;;;;;22.40;99.90;;;;;;8288424;28;19939;-72
2022/08/27 14:47:16;;;;;;;;;;;22.50;99.90;;;;;;8301521;28;19926;-72
2022/08/27 14:51:21;;;;;;;;;;;22.60;99.90;;;;;;8345967;28;19930;-73
2022/08/27 14:55:22;;;;;;;;;;;22.60;99.90;;;;;;8274751;28;19934;-72
2022/08/27 14:59:24;;;;;;;;;;;22.50;99.90;;;;;;8333641;28;20342;-72
2022/08/27 15:03:27;;;;;;;;;;;22.50;99.90;;;;;;8287625;28;19934;-72
2022/08/27 15:07:28;;;;;;;;;;;22.50;99.90;;;;;;8342369;28;19926;-72
2022/08/27 15:11:32;;;;;;;;;;;22.60;99.90;;;;;;8289332;28;19979;-72
2022/08/27 15:15:34;;;;;;;;;;;22.60;99.90;;;;;;8304109;28;19933;-72
2022/08/27 15:19:36;;;;;;;;;;;22.60;99.90;;;;;;8279265;28;19933;-72
2022/08/27 15:23:37;;;;;;;;;;;22.60;99.90;;;;;;8284845;28;20383;-72
2022/08/27 15:27:39;;;;;;;;;;;22.60;99.90;;;;;;8285810;28;20474;-72
2022/08/27 15:31:41;;;;;;;;;;;22.50;99.90;;;;;;8282938;28;19926;-72
2022/08/27 15:35:43;;;;;;;;;;;22.50;99.90;;;;;;8284086;28;19926;-72
2022/08/27 15:39:45;;;;;;;;;;;22.40;99.90;;;;;;8328327;28;19926;-72
2022/08/27 15:43:46;;;;;;;;;;;22.30;99.90;;;;;;8276667;28;19929;-72
2022/08/27 15:47:48;;;;;;;;;;;22.20;99.90;;;;;;8324104;28;19926;-73
2022/08/27 15:51:50;;;;;;;;;;;22.20;99.90;;;;;;8324882;28;20803;-73
2022/08/27 15:55:52;;;;;;;;;;;22.20;99.90;;;;;;8287878;28;20321;-73
2022/08/27 15:59:54;;;;;;;;;;;22.10;99.90;;;;;;8408747;28;19947;-72
2022/08/27 16:03:57;;;;;;;;;;;22.10;99.90;;;;;;8445968;27;20286;-72
2022/08/27 16:07:58;;;;;;;;;;;22.20;99.90;;;;;;8455942;27;19931;-73
2022/08/27 16:12:00;;;;;;;;;;;22.50;99.90;;;;;;8419111;28;20721;-72
2022/08/27 16:16:02;;;;;;;;;;;22.70;99.90;;;;;;8429392;28;19928;-72
2022/08/27 16:20:05;;;;;;;;;;;22.70;99.90;;;;;;8429697;28;19928;-72
2022/08/27 16:24:10;;;;;;;;;;;22.70;99.90;;;;;;8435313;27;20370;-73
2022/08/27 16:28:12;;;;;;;;;;;22.70;99.90;;;;;;8417903;28;20014;-72
2022/08/27 16:32:16;;;;;;;;;;;22.70;99.90;;;;;;8430540;28;19924;-72
2022/08/27 16:36:18;;;;;;;;;;;22.50;99.90;;;;;;8436366;28;19928;-73
2022/08/27 16:40:20;;;;;;;;;;;22.40;99.90;;;;;;8433613;28;19925;-72
2022/08/27 16:44:24;;;;;;;;;;;22.30;99.90;;;;;;8435254;28;19960;-72
2022/08/27 16:52:46;;;;;;;;;;;22.10;99.90;;;;;;8431588;27;19931;-72
2022/08/27 16:56:48;;;;;;;;;;;22.00;99.90;;;;;;8433136;28;20004;-73
2022/08/27 17:00:53;;;;;;;;;;;21.90;99.90;;;;;;8437565;28;19924;-72
2022/08/27 17:04:54;;;;;;;;;;;21.80;99.90;;;;;;8435663;28;20371;-72
2022/08/27 17:09:17;;;;;;;;;;;21.70;99.90;;;;;;8399240;28;19924;-72
2022/08/27 17:13:20;;;;;;;;;;;21.70;99.90;;;;;;8408468;28;19942;-72
2022/08/27 17:17:22;;;;;;;;;;;21.70;99.90;;;;;;8428000;28;19932;-73
2022/08/27 17:21:24;;;;;;;;;;;21.60;99.90;;;;;;8422178;28;19924;-72
2022/08/27 17:25:30;;;;;;;;;;;21.50;99.90;;;;;;8408079;28;20378;-73
2022/08/27 17:29:31;;;;;;;;;;;21.50;99.90;;;;;;8426864;28;19928;-73
2022/08/27 17:33:37;;;;;;;;;;;21.40;99.90;;;;;;8425097;28;19932;-72
2022/08/27 17:37:40;;;;;;;;;;;21.40;99.90;;;;;;8409273;28;20323;-73
2022/08/27 17:41:43;;;;;;;;;;;21.30;99.90;;;;;;8429059;28;19932;-74
2022/08/27 17:45:45;;;;;;;;;;;21.30;99.90;;;;;;8430851;27;19932;-73
2022/08/27 17:49:46;;;;;;;;;;;21.30;99.90;;;;;;8425087;28;19928;-73
2022/08/27 17:53:49;;;;;;;;;;;21.30;99.90;;;;;;8409961;28;19928;-73
2022/08/27 17:57:51;;;;;;;;;;;21.30;99.90;;;;;;8426547;28;19928;-73
2022/08/27 18:01:53;;;;;;;;;;;21.30;99.90;;;;;;8430174;28;19924;-73
2022/08/27 18:05:55;;;;;;;;;;;21.30;99.90;;;;;;8426422;28;20046;-72
2022/08/27 18:09:57;;;;;;;;;;;21.30;99.90;;;;;;8407448;28;20358;-72
2022/08/27 18:13:59;;;;;;;;;;;21.30;99.90;;;;;;8419420;28;19939;-72
2022/08/27 18:18:05;;;;;;;;;;;21.20;99.90;;;;;;8427066;28;19928;-73
2022/08/27 18:22:07;;;;;;;;;;;21.20;99.90;;;;;;8430381;28;19928;-72
2022/08/27 18:26:17;;;;;;;;;;;21.10;99.90;;;;;;8421375;28;20267;-73
2022/08/27 18:30:19;;;;;;;;;;;21.10;99.90;;;;;;8423443;28;19939;-72
2022/08/27 18:34:21;;;;;;;;;;;21.00;99.90;;;;;;8426928;28;19932;-73
2022/08/27 18:38:22;;;;;;;;;;;20.90;99.90;;;;;;8431258;28;20592;-73
2022/08/27 18:42:24;;;;;;;;;;;20.90;99.90;;;;;;8439991;28;19932;-73
2022/08/27 18:46:26;;;;;;;;;;;20.80;99.90;;;;;;8421829;28;19946;-72
2022/08/27 18:50:28;;;;;;;;;;;20.80;99.90;;;;;;8420279;28;20308;-73
2022/08/27 18:54:29;;;;;;;;;;;20.70;99.90;;;;;;8445887;28;19936;-72
2022/08/27 18:58:31;;;;;;;;;;;20.70;99.90;;;;;;8370450;28;19929;-72
2022/08/27 19:02:33;;;;;;;;;;;20.60;99.90;;;;;;8272277;28;19925;-73
2022/08/27 19:06:35;;;;;;;;;;;20.50;99.90;;;;;;8279040;28;20348;-73
2022/08/27 19:10:37;;;;;;;;;;;20.50;99.90;;;;;;8274304;28;20388;-72
2022/08/27 19:14:39;;;;;;;;;;;20.40;99.90;;;;;;8339011;28;19930;-73
2022/08/27 19:18:44;;;;;;;;;;;20.40;99.90;;;;;;8353597;27;20014;-73
2022/08/27 19:22:46;;;;;;;;;;;20.30;99.90;;;;;;8273606;28;19936;-75
2022/08/27 19:26:48;;;;;;;;;;;20.30;99.90;;;;;;8339081;28;19929;-73
2022/08/27 19:30:50;;;;;;;;;;;20.20;99.90;;;;;;8274385;28;19929;-73
2022/08/27 19:34:52;;;;;;;;;;;20.20;99.90;;;;;;8334782;28;19971;-73
2022/08/27 19:38:54;;;;;;;;;;;20.10;99.90;;;;;;8340869;28;19928;-73
2022/08/27 19:42:55;;;;;;;;;;;20.10;99.90;;;;;;8275713;28;19933;-73
2022/08/27 19:47:00;;;;;;;;;;;20.10;99.90;;;;;;8347571;28;19934;-73
2022/08/27 19:51:02;;;;;;;;;;;20.00;99.90;;;;;;8276021;28;19926;-73
2022/08/27 19:55:03;;;;;;;;;;;20.00;99.90;;;;;;8343391;28;20285;-73
2022/08/27 19:59:20;;;;;;;;;;;19.90;99.90;;;;;;8375692;28;20031;-73
2022/08/27 20:03:22;;;;;;;;;;;19.90;99.90;;;;;;8438478;28;19934;-73
2022/08/27 20:07:24;;;;;;;;;;;19.80;99.90;;;;;;8439720;28;19935;-73
2022/08/27 20:11:25;;;;;;;;;;;19.80;99.90;;;;;;8439947;28;20300;-73
2022/08/27 20:15:27;;;;;;;;;;;19.80;99.90;;;;;;8424575;28;20460;-74
2022/08/27 20:19:29;;;;;;;;;;;19.70;99.90;;;;;;8440203;28;20375;-73
2022/08/27 20:23:30;;;;;;;;;;;19.70;99.90;;;;;;8438709;28;19928;-73
2022/08/27 20:27:32;;;;;;;;;;;19.70;99.90;;;;;;8439746;28;19927;-73
2022/08/27 20:31:34;;;;;;;;;;;19.60;99.90;;;;;;8440449;28;19982;-73
2022/08/27 20:35:37;;;;;;;;;;;19.60;99.90;;;;;;8434207;28;19928;-73
2022/08/27 20:39:39;;;;;;;;;;;19.50;99.90;;;;;;8434832;27;19927;-74
2022/08/27 20:43:40;;;;;;;;;;;19.50;99.90;;;;;;8439526;28;20397;-73
2022/08/27 20:47:43;;;;;;;;;;;19.50;99.90;;;;;;8438657;28;19931;-73
2022/08/27 20:51:45;;;;;;;;;;;19.40;99.90;;;;;;8439849;27;20941;-73
2022/08/27 20:55:55;;;;;;;;;;;19.40;99.90;;;;;;8438730;28;19924;-73
2022/08/27 21:04:17;;;;;;;;;;;19.30;99.90;;;;;;8452986;28;19931;-73
2022/08/27 21:08:20;;;;;;;;;;;19.30;99.90;;;;;;8456410;28;19957;-73
2022/08/27 21:12:22;;;;;;;;;;;19.30;99.90;;;;;;8455041;28;19927;-73
2022/08/27 21:16:24;;;;;;;;;;;19.20;99.90;;;;;;8440309;28;19931;-73
2022/08/27 21:20:26;;;;;;;;;;;19.20;99.90;;;;;;8454393;28;19974;-73
2022/08/27 21:24:27;;;;;;;;;;;19.20;99.90;;;;;;8451895;28;19931;-73
2022/08/27 21:28:29;;;;;;;;;;;19.10;99.90;;;;;;8451901;27;20528;-73
2022/08/27 21:32:31;;;;;;;;;;;19.10;99.90;;;;;;8457323;28;20444;-73
2022/08/27 21:36:33;;;;;;;;;;;19.10;99.90;;;;;;8450198;28;19923;-73
2022/08/27 21:40:34;;;;;;;;;;;19.10;99.90;;;;;;8453861;28;20279;-74
2022/08/27 21:44:37;;;;;;;;;;;19.00;99.90;;;;;;8453393;27;20398;-73
2022/08/27 21:48:38;;;;;;;;;;;19.00;99.90;;;;;;8433933;28;19927;-74
2022/08/27 21:52:40;;;;;;;;;;;19.00;99.90;;;;;;8447804;28;20445;-73
2022/08/27 21:56:42;;;;;;;;;;;18.90;99.90;;;;;;8454876;28;20375;-73
2022/08/27 22:00:46;;;;;;;;;;;18.80;99.90;;;;;;8454325;28;20379;-73
2022/08/27 22:04:49;;;;;;;;;;;18.80;99.90;;;;;;8457816;28;19928;-73
2022/08/27 22:08:51;;;;;;;;;;;18.80;99.90;;;;;;8432601;28;19931;-74
2022/08/27 22:12:52;;;;;;;;;;;18.70;99.90;;;;;;8445891;28;19927;-73
2022/08/27 22:16:54;;;;;;;;;;;18.60;99.90;;;;;;8456080;28;19924;-73
2022/08/27 22:20:57;;;;;;;;;;;18.50;99.90;;;;;;8465908;27;19934;-73
2022/08/27 22:24:59;;;;;;;;;;;18.40;99.90;;;;;;8451306;28;19969;-73
2022/08/27 22:29:00;;;;;;;;;;;18.30;99.90;;;;;;8450375;28;19935;-74
2022/08/27 22:33:04;;;;;;;;;;;18.30;99.90;;;;;;8450360;28;19970;-73
2022/08/27 22:37:06;;;;;;;;;;;18.20;99.90;;;;;;8444689;28;19931;-72
2022/08/27 22:41:07;;;;;;;;;;;18.10;99.90;;;;;;8443018;28;19931;-73
2022/08/27 22:45:09;;;;;;;;;;;18.10;99.90;;;;;;8451066;28;19923;-73
2022/08/27 22:49:11;;;;;;;;;;;18.00;99.90;;;;;;8454878;28;19927;-73
2022/08/27 22:53:12;;;;;;;;;;;18.00;99.90;;;;;;8435265;28;19938;-73
2022/08/27 22:57:14;;;;;;;;;;;17.90;99.90;;;;;;8449681;28;19924;-72
2022/08/27 23:01:19;;;;;;;;;;;17.80;99.90;;;;;;8458253;28;19931;-73
2022/08/27 23:05:21;;;;;;;;;;;17.70;99.90;;;;;;8449896;28;19935;-74
2022/08/27 23:09:23;;;;;;;;;;;17.60;99.90;;;;;;8440073;28;20379;-73
2022/08/27 23:13:25;;;;;;;;;;;17.50;99.90;;;;;;8442302;28;19928;-73
2022/08/27 23:17:26;;;;;;;;;;;17.50;99.90;;;;;;8447306;28;19923;-73
2022/08/27 23:21:28;;;;;;;;;;;17.40;99.90;;;;;;8459407;28;19924;-73
2022/08/27 23:29:51;;;;;;;;;;;17.30;99.90;;;;;;8459929;28;19966;-73
2022/08/27 23:33:54;;;;;;;;;;;17.30;99.90;;;;;;8463922;28;20299;-73
2022/08/27 23:37:56;;;;;;;;;;;17.40;99.90;;;;;;8453112;28;19924;-73
2022/08/27 23:41:58;;;;;;;;;;;17.40;99.90;;;;;;8439238;28;19924;-73
2022/08/27 23:46:00;;;;;;;;;;;17.30;99.90;;;;;;8440680;27;19923;-73
2022/08/27 23:50:02;;;;;;;;;;;17.30;99.90;;;;;;8460952;28;19927;-72
2022/08/27 23:54:04;;;;;;;;;;;17.20;99.90;;;;;;8464139;28;19931;-72
2022/08/27 23:58:06;;;;;;;;;;;17.10;99.90;;;;;;8399046;28;19948;-72
